Smith Reynolds Airport
KINT : now visible

Airfield :











YOU CAN JOIN US ON...

 
LOGIN :

Register | Disclaimer

   EN    FR    IT 

 









Legend :    VFR   Marginal VFR   IFR   Intensive IFR   Very Intensive IFR
Visi :
Ceiling :
>= 8 km
>= 3000ft
5 to 8 km
1000 to 3000 ft
1500m to 5 km
500 to 1000 ft
800 to 1500m
200 to 500 ft
< 800m
< 200 ft
Symbols :   Thunderstorms  Fog  Heavy snow  Heavy precipitations  Wind > 20 kt






- Airport Elevation : 969 ft
- IATA code : INT


KINT - Smith Reynolds

CURRENT METAR :
  • 200754Z AUTO 03009KT 5SM -RA BR OVC005 11/11 A2979 RMK AO2 CIG 004V010 SLP083 P0013 T01110106

EXPIRED METARs :
  • 200726Z AUTO 04006KT 3SM RA BR OVC005 12/11 A2979 RMK AO2 CIG 004V009 P0009 T01170111
  • 200714Z AUTO 04010KT 2SM RA BR BKN005 OVC013 12/11 A2979 RMK AO2 P0007 T01170111
  • 200705Z AUTO 03009KT 3SM RA BR BKN005 OVC012 12/11 A2980 RMK AO2 P0003 T01170111
  • 200635Z AUTO 05012G21KT 1 3/4SM +RA BR BKN005 OVC018 11/11 A2980 RMK AO2 P0033 T01110106
  • 200622Z AUTO 05011G17KT 2 1/2SM RA BR OVC004 11/11 A2980 RMK AO2 P0021 T01110106
  • 200613Z AUTO 11010G18KT 1 3/4SM +RA BR BKN004 OVC018 11/11 A2981 RMK AO2 P0016 T01110106
  • 200554Z AUTO 04014G21KT 3SM RA BR BKN006 OVC021 11/11 A2982 RMK AO2 SLP094 P0029 60074 T01110106 10144 20111 56035
  • 200526Z AUTO 05012G19KT 3SM RA BR BKN005 OVC023 11/11 A2985 RMK AO2 P0015 T01110106

TAF KINT
Valid from the 20 at 06:00 until the 21 at 06:00 UTC


200629Z 2006/2106 05011G17KT 2SM RA BR OVC004
FM200800 03010G18KT 1 1/2SM +RA OVC003 WS020/07033KT
FM201300 02011G18KT 5SM +RA OVC005
FM201600 02009G18KT P6SM -RA BKN010
FM202000 03008G15KT P6SM SCT015
FM210300 VRB03KT 6SM BR FEW050



MET'MAP, your aeronautical weather chart ! - Copyright ORBIFLY December 2007 - Disclaimer

ORBIFLY MET'MAP TEAM :

Programming & Development : Alexandra Zaïnal
Concept & Development : Baudouin d'Aumeries
Co-Development & Prog : Marc-Olivier Méhu
Technical & hardware support : Manuel Goepfert

Contact : metmap@orbifly.com




SOURCES & CREDITS :

   NOAA       Earth
Advisory